sensor_id;sensor_type;location;lat;lon;timestamp;P1;durP1;ratioP1;P2;durP2;ratioP2
13649;SDS011;6898;50.918;4.688;2022-10-10T00:01:57;8.63;;;6.05;;
13649;SDS011;6898;50.918;4.688;2022-10-10T00:04:25;11.02;;;6.47;;
13649;SDS011;6898;50.918;4.688;2022-10-10T00:06:54;8.85;;;6.18;;
13649;SDS011;6898;50.918;4.688;2022-10-10T00:09:24;10.10;;;6.45;;
13649;SDS011;6898;50.918;4.688;2022-10-10T00:11:52;10.73;;;6.50;;
13649;SDS011;6898;50.918;4.688;2022-10-10T00:14:20;9.33;;;6.60;;
13649;SDS011;6898;50.918;4.688;2022-10-10T00:16:49;11.25;;;6.57;;
13649;SDS011;6898;50.918;4.688;2022-10-10T00:19:17;9.43;;;6.28;;
13649;SDS011;6898;50.918;4.688;2022-10-10T00:21:46;9.30;;;6.60;;
13649;SDS011;6898;50.918;4.688;2022-10-10T00:24:14;8.32;;;6.20;;
13649;SDS011;6898;50.918;4.688;2022-10-10T00:26:44;8.35;;;5.72;;
13649;SDS011;6898;50.918;4.688;2022-10-10T00:29:12;7.80;;;5.93;;
13649;SDS011;6898;50.918;4.688;2022-10-10T00:31:40;10.50;;;6.13;;
13649;SDS011;6898;50.918;4.688;2022-10-10T00:34:09;7.47;;;5.57;;
13649;SDS011;6898;50.918;4.688;2022-10-10T00:36:38;9.13;;;5.78;;
13649;SDS011;6898;50.918;4.688;2022-10-10T00:39:06;8.02;;;5.75;;
13649;SDS011;6898;50.918;4.688;2022-10-10T00:41:35;7.25;;;5.50;;
13649;SDS011;6898;50.918;4.688;2022-10-10T00:44:05;7.97;;;5.70;;
13649;SDS011;6898;50.918;4.688;2022-10-10T00:46:34;7.95;;;5.88;;
13649;SDS011;6898;50.918;4.688;2022-10-10T00:49:03;8.00;;;5.70;;
13649;SDS011;6898;50.918;4.688;2022-10-10T00:51:33;10.93;;;5.75;;
13649;SDS011;6898;50.918;4.688;2022-10-10T00:54:03;8.45;;;6.20;;
13649;SDS011;6898;50.918;4.688;2022-10-10T00:56:32;9.90;;;6.18;;
13649;SDS011;6898;50.918;4.688;2022-10-10T00:59:03;7.80;;;6.00;;
13649;SDS011;6898;50.918;4.688;2022-10-10T01:01:33;9.85;;;6.43;;
13649;SDS011;6898;50.918;4.688;2022-10-10T01:04:02;9.50;;;6.47;;
13649;SDS011;6898;50.918;4.688;2022-10-10T01:06:30;9.07;;;6.67;;
13649;SDS011;6898;50.918;4.688;2022-10-10T01:08:59;9.82;;;6.53;;
13649;SDS011;6898;50.918;4.688;2022-10-10T01:11:37;9.75;;;6.85;;
13649;SDS011;6898;50.918;4.688;2022-10-10T01:14:08;8.60;;;6.57;;
13649;SDS011;6898;50.918;4.688;2022-10-10T01:16:41;9.80;;;6.67;;
13649;SDS011;6898;50.918;4.688;2022-10-10T01:19:19;8.48;;;6.70;;
13649;SDS011;6898;50.918;4.688;2022-10-10T01:21:52;12.35;;;6.82;;
13649;SDS011;6898;50.918;4.688;2022-10-10T01:24:25;8.63;;;6.50;;
13649;SDS011;6898;50.918;4.688;2022-10-10T01:27:07;8.57;;;6.50;;
13649;SDS011;6898;50.918;4.688;2022-10-10T01:29:39;9.57;;;6.63;;
13649;SDS011;6898;50.918;4.688;2022-10-10T01:32:12;11.57;;;6.97;;
13649;SDS011;6898;50.918;4.688;2022-10-10T01:34:44;9.27;;;6.78;;
13649;SDS011;6898;50.918;4.688;2022-10-10T01:37:16;8.40;;;6.43;;
13649;SDS011;6898;50.918;4.688;2022-10-10T01:39:47;9.93;;;7.05;;
13649;SDS011;6898;50.918;4.688;2022-10-10T01:42:18;9.82;;;6.78;;
13649;SDS011;6898;50.918;4.688;2022-10-10T01:44:48;7.90;;;6.07;;
13649;SDS011;6898;50.918;4.688;2022-10-10T01:47:19;10.55;;;6.57;;
13649;SDS011;6898;50.918;4.688;2022-10-10T01:49:48;8.68;;;6.53;;
13649;SDS011;6898;50.918;4.688;2022-10-10T01:52:21;10.20;;;6.07;;
13649;SDS011;6898;50.918;4.688;2022-10-10T01:54:55;10.35;;;6.60;;
13649;SDS011;6898;50.918;4.688;2022-10-10T01:57:30;7.40;;;6.47;;
13649;SDS011;6898;50.918;4.688;2022-10-10T02:00:04;9.43;;;6.60;;
13649;SDS011;6898;50.918;4.688;2022-10-10T02:02:38;8.70;;;6.72;;
13649;SDS011;6898;50.918;4.688;2022-10-10T02:05:11;9.07;;;6.30;;
13649;SDS011;6898;50.918;4.688;2022-10-10T02:07:42;8.10;;;6.25;;
13649;SDS011;6898;50.918;4.688;2022-10-10T02:10:12;9.30;;;6.60;;
13649;SDS011;6898;50.918;4.688;2022-10-10T02:12:42;9.02;;;6.07;;
13649;SDS011;6898;50.918;4.688;2022-10-10T02:15:16;11.02;;;6.50;;
13649;SDS011;6898;50.918;4.688;2022-10-10T02:17:46;8.27;;;6.35;;
13649;SDS011;6898;50.918;4.688;2022-10-10T02:20:17;10.50;;;6.63;;
13649;SDS011;6898;50.918;4.688;2022-10-10T02:22:46;8.57;;;6.13;;
13649;SDS011;6898;50.918;4.688;2022-10-10T02:25:18;10.00;;;6.15;;
13649;SDS011;6898;50.918;4.688;2022-10-10T02:27:49;9.10;;;5.65;;
13649;SDS011;6898;50.918;4.688;2022-10-10T02:30:23;7.82;;;5.47;;
13649;SDS011;6898;50.918;4.688;2022-10-10T02:32:53;9.63;;;5.72;;
13649;SDS011;6898;50.918;4.688;2022-10-10T02:35:24;9.40;;;5.57;;
13649;SDS011;6898;50.918;4.688;2022-10-10T02:37:54;10.05;;;5.80;;
13649;SDS011;6898;50.918;4.688;2022-10-10T02:40:24;7.97;;;5.30;;
13649;SDS011;6898;50.918;4.688;2022-10-10T02:42:53;7.72;;;5.70;;
13649;SDS011;6898;50.918;4.688;2022-10-10T02:45:24;9.32;;;5.88;;
13649;SDS011;6898;50.918;4.688;2022-10-10T02:47:54;8.55;;;5.45;;
13649;SDS011;6898;50.918;4.688;2022-10-10T02:50:22;9.23;;;5.70;;
13649;SDS011;6898;50.918;4.688;2022-10-10T02:52:50;9.25;;;5.70;;
13649;SDS011;6898;50.918;4.688;2022-10-10T02:55:19;6.88;;;5.70;;
13649;SDS011;6898;50.918;4.688;2022-10-10T02:57:48;9.13;;;5.75;;
13649;SDS011;6898;50.918;4.688;2022-10-10T03:00:16;9.15;;;5.80;;
13649;SDS011;6898;50.918;4.688;2022-10-10T03:02:46;9.63;;;5.70;;
13649;SDS011;6898;50.918;4.688;2022-10-10T03:05:15;10.48;;;5.97;;
13649;SDS011;6898;50.918;4.688;2022-10-10T03:07:43;9.27;;;6.07;;
13649;SDS011;6898;50.918;4.688;2022-10-10T03:10:12;7.87;;;5.60;;
13649;SDS011;6898;50.918;4.688;2022-10-10T03:12:40;8.20;;;5.40;;
13649;SDS011;6898;50.918;4.688;2022-10-10T03:15:09;10.95;;;5.68;;
13649;SDS011;6898;50.918;4.688;2022-10-10T03:17:37;9.63;;;5.63;;
13649;SDS011;6898;50.918;4.688;2022-10-10T03:20:07;8.55;;;5.90;;
13649;SDS011;6898;50.918;4.688;2022-10-10T03:22:36;8.15;;;5.40;;
13649;SDS011;6898;50.918;4.688;2022-10-10T03:25:05;9.05;;;5.90;;
13649;SDS011;6898;50.918;4.688;2022-10-10T03:27:33;8.75;;;5.63;;
13649;SDS011;6898;50.918;4.688;2022-10-10T03:30:02;11.15;;;6.20;;
13649;SDS011;6898;50.918;4.688;2022-10-10T03:32:30;8.60;;;5.80;;
13649;SDS011;6898;50.918;4.688;2022-10-10T03:34:58;11.97;;;5.70;;
13649;SDS011;6898;50.918;4.688;2022-10-10T03:37:28;8.77;;;5.30;;
13649;SDS011;6898;50.918;4.688;2022-10-10T03:39:57;7.45;;;5.50;;
13649;SDS011;6898;50.918;4.688;2022-10-10T03:42:25;8.55;;;5.38;;
13649;SDS011;6898;50.918;4.688;2022-10-10T03:44:53;8.43;;;5.50;;
13649;SDS011;6898;50.918;4.688;2022-10-10T03:47:22;10.85;;;5.68;;
13649;SDS011;6898;50.918;4.688;2022-10-10T03:49:50;12.00;;;5.70;;
13649;SDS011;6898;50.918;4.688;2022-10-10T03:52:19;8.70;;;5.60;;
13649;SDS011;6898;50.918;4.688;2022-10-10T03:54:49;10.02;;;5.32;;
13649;SDS011;6898;50.918;4.688;2022-10-10T03:57:18;8.20;;;5.22;;
13649;SDS011;6898;50.918;4.688;2022-10-10T03:59:46;8.60;;;5.50;;
13649;SDS011;6898;50.918;4.688;2022-10-10T04:02:14;8.90;;;5.55;;
13649;SDS011;6898;50.918;4.688;2022-10-10T04:04:43;7.70;;;5.20;;
13649;SDS011;6898;50.918;4.688;2022-10-10T04:07:11;10.57;;;5.40;;
13649;SDS011;6898;50.918;4.688;2022-10-10T04:09:40;7.22;;;5.20;;
13649;SDS011;6898;50.918;4.688;2022-10-10T04:12:09;7.78;;;5.15;;
13649;SDS011;6898;50.918;4.688;2022-10-10T04:14:38;8.10;;;5.23;;
13649;SDS011;6898;50.918;4.688;2022-10-10T04:17:06;7.47;;;5.30;;
13649;SDS011;6898;50.918;4.688;2022-10-10T04:19:35;10.70;;;5.35;;
13649;SDS011;6898;50.918;4.688;2022-10-10T04:22:03;7.93;;;5.38;;
13649;SDS011;6898;50.918;4.688;2022-10-10T04:24:35;7.25;;;5.30;;
13649;SDS011;6898;50.918;4.688;2022-10-10T04:27:03;10.95;;;5.60;;
13649;SDS011;6898;50.918;4.688;2022-10-10T04:29:33;9.60;;;5.45;;
13649;SDS011;6898;50.918;4.688;2022-10-10T04:32:02;8.55;;;5.30;;
13649;SDS011;6898;50.918;4.688;2022-10-10T04:34:30;12.40;;;5.47;;
13649;SDS011;6898;50.918;4.688;2022-10-10T04:36:58;9.68;;;5.10;;
13649;SDS011;6898;50.918;4.688;2022-10-10T04:39:27;9.35;;;5.60;;
13649;SDS011;6898;50.918;4.688;2022-10-10T04:41:55;10.00;;;5.30;;
13649;SDS011;6898;50.918;4.688;2022-10-10T04:44:24;10.05;;;5.70;;
13649;SDS011;6898;50.918;4.688;2022-10-10T04:46:53;8.40;;;5.30;;
13649;SDS011;6898;50.918;4.688;2022-10-10T04:49:22;9.13;;;5.45;;
13649;SDS011;6898;50.918;4.688;2022-10-10T04:51:51;8.13;;;5.50;;
13649;SDS011;6898;50.918;4.688;2022-10-10T04:54:19;9.98;;;5.70;;
13649;SDS011;6898;50.918;4.688;2022-10-10T04:56:47;9.23;;;5.88;;
13649;SDS011;6898;50.918;4.688;2022-10-10T04:59:16;9.00;;;5.68;;
13649;SDS011;6898;50.918;4.688;2022-10-10T05:01:44;7.93;;;5.68;;
13649;SDS011;6898;50.918;4.688;2022-10-10T05:04:14;9.07;;;5.57;;
13649;SDS011;6898;50.918;4.688;2022-10-10T05:06:42;9.43;;;5.55;;
13649;SDS011;6898;50.918;4.688;2022-10-10T05:09:11;10.98;;;5.70;;
13649;SDS011;6898;50.918;4.688;2022-10-10T05:11:39;9.37;;;5.80;;
13649;SDS011;6898;50.918;4.688;2022-10-10T05:14:07;9.93;;;5.82;;
13649;SDS011;6898;50.918;4.688;2022-10-10T05:16:36;9.20;;;5.57;;
13649;SDS011;6898;50.918;4.688;2022-10-10T05:19:04;9.02;;;5.80;;
13649;SDS011;6898;50.918;4.688;2022-10-10T05:21:34;9.27;;;5.95;;
13649;SDS011;6898;50.918;4.688;2022-10-10T05:24:03;9.93;;;5.68;;
13649;SDS011;6898;50.918;4.688;2022-10-10T05:26:31;8.65;;;6.05;;
13649;SDS011;6898;50.918;4.688;2022-10-10T05:29:00;9.00;;;5.70;;
13649;SDS011;6898;50.918;4.688;2022-10-10T05:31:28;8.10;;;5.63;;
13649;SDS011;6898;50.918;4.688;2022-10-10T05:33:57;11.35;;;5.95;;
13649;SDS011;6898;50.918;4.688;2022-10-10T05:36:25;11.25;;;5.93;;
13649;SDS011;6898;50.918;4.688;2022-10-10T05:38:55;11.13;;;5.97;;
13649;SDS011;6898;50.918;4.688;2022-10-10T05:41:24;13.80;;;6.05;;
13649;SDS011;6898;50.918;4.688;2022-10-10T05:43:53;10.30;;;5.95;;
13649;SDS011;6898;50.918;4.688;2022-10-10T05:46:21;10.17;;;6.20;;
13649;SDS011;6898;50.918;4.688;2022-10-10T05:48:52;11.68;;;5.95;;
13649;SDS011;6898;50.918;4.688;2022-10-10T05:51:23;10.80;;;6.03;;
13649;SDS011;6898;50.918;4.688;2022-10-10T05:53:51;8.70;;;5.80;;
13649;SDS011;6898;50.918;4.688;2022-10-10T05:56:22;9.77;;;6.50;;
13649;SDS011;6898;50.918;4.688;2022-10-10T05:58:50;8.37;;;6.07;;
13649;SDS011;6898;50.918;4.688;2022-10-10T06:01:19;10.02;;;6.10;;
13649;SDS011;6898;50.918;4.688;2022-10-10T06:03:47;9.98;;;6.20;;
13649;SDS011;6898;50.918;4.688;2022-10-10T06:06:21;9.77;;;6.45;;
13649;SDS011;6898;50.918;4.688;2022-10-10T06:08:49;10.57;;;6.10;;
13649;SDS011;6898;50.918;4.688;2022-10-10T06:11:18;10.40;;;6.10;;
13649;SDS011;6898;50.918;4.688;2022-10-10T06:13:50;10.30;;;6.43;;
13649;SDS011;6898;50.918;4.688;2022-10-10T06:16:19;10.57;;;6.30;;
13649;SDS011;6898;50.918;4.688;2022-10-10T06:18:48;10.25;;;6.47;;
13649;SDS011;6898;50.918;4.688;2022-10-10T06:21:18;11.30;;;6.90;;
13649;SDS011;6898;50.918;4.688;2022-10-10T06:23:51;10.05;;;6.45;;
13649;SDS011;6898;50.918;4.688;2022-10-10T06:27:02;10.55;;;6.82;;
13649;SDS011;6898;50.918;4.688;2022-10-10T06:29:32;11.20;;;6.38;;
13649;SDS011;6898;50.918;4.688;2022-10-10T06:32:00;12.07;;;6.20;;
13649;SDS011;6898;50.918;4.688;2022-10-10T06:34:29;17.67;;;6.07;;
13649;SDS011;6898;50.918;4.688;2022-10-10T06:37:00;10.83;;;6.37;;
13649;SDS011;6898;50.918;4.688;2022-10-10T06:39:31;13.35;;;6.20;;
13649;SDS011;6898;50.918;4.688;2022-10-10T06:42:00;11.55;;;6.13;;
13649;SDS011;6898;50.918;4.688;2022-10-10T06:44:28;8.63;;;6.03;;
13649;SDS011;6898;50.918;4.688;2022-10-10T06:46:58;11.03;;;6.27;;
13649;SDS011;6898;50.918;4.688;2022-10-10T06:49:26;10.00;;;6.50;;
13649;SDS011;6898;50.918;4.688;2022-10-10T06:51:55;12.90;;;6.70;;
13649;SDS011;6898;50.918;4.688;2022-10-10T06:54:23;12.82;;;6.18;;
13649;SDS011;6898;50.918;4.688;2022-10-10T06:56:52;13.13;;;6.25;;
13649;SDS011;6898;50.918;4.688;2022-10-10T06:59:20;11.77;;;6.25;;
13649;SDS011;6898;50.918;4.688;2022-10-10T07:01:49;9.52;;;6.25;;
13649;SDS011;6898;50.918;4.688;2022-10-10T07:04:19;11.30;;;6.07;;
13649;SDS011;6898;50.918;4.688;2022-10-10T07:06:47;9.80;;;6.20;;
13649;SDS011;6898;50.918;4.688;2022-10-10T07:09:16;10.40;;;6.25;;
13649;SDS011;6898;50.918;4.688;2022-10-10T07:11:45;12.68;;;6.18;;
13649;SDS011;6898;50.918;4.688;2022-10-10T07:14:14;11.10;;;6.55;;
13649;SDS011;6898;50.918;4.688;2022-10-10T07:16:42;13.50;;;6.30;;
13649;SDS011;6898;50.918;4.688;2022-10-10T07:19:10;11.30;;;6.25;;
13649;SDS011;6898;50.918;4.688;2022-10-10T07:21:40;8.88;;;5.82;;
13649;SDS011;6898;50.918;4.688;2022-10-10T07:24:09;9.70;;;5.78;;
13649;SDS011;6898;50.918;4.688;2022-10-10T07:26:37;12.85;;;6.25;;
13649;SDS011;6898;50.918;4.688;2022-10-10T07:29:05;12.13;;;5.88;;
13649;SDS011;6898;50.918;4.688;2022-10-10T07:31:34;12.23;;;6.05;;
13649;SDS011;6898;50.918;4.688;2022-10-10T07:34:04;12.13;;;6.37;;
13649;SDS011;6898;50.918;4.688;2022-10-10T07:36:32;13.07;;;6.18;;
13649;SDS011;6898;50.918;4.688;2022-10-10T07:39:02;12.60;;;6.35;;
13649;SDS011;6898;50.918;4.688;2022-10-10T07:41:31;12.32;;;6.30;;
13649;SDS011;6898;50.918;4.688;2022-10-10T07:43:59;13.32;;;6.30;;
13649;SDS011;6898;50.918;4.688;2022-10-10T07:46:30;14.63;;;6.53;;
13649;SDS011;6898;50.918;4.688;2022-10-10T07:48:59;13.05;;;6.30;;
13649;SDS011;6898;50.918;4.688;2022-10-10T07:51:27;10.63;;;6.28;;
13649;SDS011;6898;50.918;4.688;2022-10-10T07:53:56;11.52;;;6.20;;
13649;SDS011;6898;50.918;4.688;2022-10-10T07:56:26;13.02;;;5.97;;
13649;SDS011;6898;50.918;4.688;2022-10-10T07:58:54;11.38;;;5.88;;
13649;SDS011;6898;50.918;4.688;2022-10-10T08:01:22;10.70;;;6.00;;
13649;SDS011;6898;50.918;4.688;2022-10-10T08:03:51;12.00;;;6.03;;
13649;SDS011;6898;50.918;4.688;2022-10-10T08:06:19;12.65;;;6.63;;
13649;SDS011;6898;50.918;4.688;2022-10-10T08:08:48;13.38;;;6.53;;
13649;SDS011;6898;50.918;4.688;2022-10-10T08:11:18;12.37;;;5.73;;
13649;SDS011;6898;50.918;4.688;2022-10-10T08:13:48;12.05;;;5.95;;
13649;SDS011;6898;50.918;4.688;2022-10-10T08:16:16;13.25;;;6.43;;
13649;SDS011;6898;50.918;4.688;2022-10-10T08:18:48;11.23;;;5.85;;
13649;SDS011;6898;50.918;4.688;2022-10-10T08:21:17;10.73;;;5.83;;
13649;SDS011;6898;50.918;4.688;2022-10-10T08:23:45;12.63;;;5.97;;
13649;SDS011;6898;50.918;4.688;2022-10-10T08:26:14;14.20;;;6.50;;
13649;SDS011;6898;50.918;4.688;2022-10-10T08:28:43;12.63;;;5.87;;
13649;SDS011;6898;50.918;4.688;2022-10-10T08:31:16;12.38;;;5.80;;
13649;SDS011;6898;50.918;4.688;2022-10-10T08:33:44;13.13;;;5.97;;
13649;SDS011;6898;50.918;4.688;2022-10-10T08:36:14;13.65;;;6.20;;
13649;SDS011;6898;50.918;4.688;2022-10-10T08:38:43;11.95;;;5.75;;
13649;SDS011;6898;50.918;4.688;2022-10-10T08:41:13;17.08;;;6.53;;
13649;SDS011;6898;50.918;4.688;2022-10-10T08:43:46;13.00;;;6.38;;
13649;SDS011;6898;50.918;4.688;2022-10-10T08:46:17;12.73;;;6.00;;
13649;SDS011;6898;50.918;4.688;2022-10-10T08:48:46;15.85;;;6.28;;
13649;SDS011;6898;50.918;4.688;2022-10-10T08:51:17;9.88;;;5.68;;
13649;SDS011;6898;50.918;4.688;2022-10-10T08:53:48;11.43;;;5.85;;
13649;SDS011;6898;50.918;4.688;2022-10-10T08:56:20;12.00;;;6.10;;
13649;SDS011;6898;50.918;4.688;2022-10-10T08:58:51;12.80;;;5.78;;
13649;SDS011;6898;50.918;4.688;2022-10-10T09:01:23;10.93;;;5.65;;
13649;SDS011;6898;50.918;4.688;2022-10-10T09:03:55;11.60;;;6.00;;
13649;SDS011;6898;50.918;4.688;2022-10-10T09:06:29;11.02;;;5.65;;
13649;SDS011;6898;50.918;4.688;2022-10-10T09:09:04;11.50;;;5.90;;
13649;SDS011;6898;50.918;4.688;2022-10-10T09:11:37;12.37;;;5.80;;
13649;SDS011;6898;50.918;4.688;2022-10-10T09:14:11;15.60;;;5.70;;
13649;SDS011;6898;50.918;4.688;2022-10-10T09:16:45;12.73;;;5.10;;
13649;SDS011;6898;50.918;4.688;2022-10-10T09:19:18;11.70;;;5.10;;
13649;SDS011;6898;50.918;4.688;2022-10-10T09:21:49;12.38;;;5.35;;
13649;SDS011;6898;50.918;4.688;2022-10-10T09:24:19;11.73;;;5.22;;
13649;SDS011;6898;50.918;4.688;2022-10-10T09:26:51;15.10;;;4.80;;
13649;SDS011;6898;50.918;4.688;2022-10-10T09:29:24;11.75;;;5.00;;
13649;SDS011;6898;50.918;4.688;2022-10-10T09:31:56;16.48;;;5.40;;
13649;SDS011;6898;50.918;4.688;2022-10-10T09:34:29;10.75;;;4.30;;
13649;SDS011;6898;50.918;4.688;2022-10-10T09:36:58;11.00;;;4.57;;
13649;SDS011;6898;50.918;4.688;2022-10-10T09:39:30;11.38;;;4.70;;
13649;SDS011;6898;50.918;4.688;2022-10-10T09:42:01;18.57;;;5.00;;
13649;SDS011;6898;50.918;4.688;2022-10-10T09:44:30;10.80;;;4.80;;
13649;SDS011;6898;50.918;4.688;2022-10-10T09:47:00;9.18;;;4.57;;
13649;SDS011;6898;50.918;4.688;2022-10-10T09:49:29;11.50;;;4.60;;
13649;SDS011;6898;50.918;4.688;2022-10-10T09:51:57;10.82;;;4.50;;
13649;SDS011;6898;50.918;4.688;2022-10-10T09:54:28;12.48;;;4.65;;
13649;SDS011;6898;50.918;4.688;2022-10-10T09:56:56;10.18;;;4.63;;
13649;SDS011;6898;50.918;4.688;2022-10-10T09:59:35;14.35;;;4.53;;
13649;SDS011;6898;50.918;4.688;2022-10-10T10:02:10;12.32;;;4.72;;
13649;SDS011;6898;50.918;4.688;2022-10-10T10:04:39;21.40;;;6.00;;
13649;SDS011;6898;50.918;4.688;2022-10-10T10:07:16;8.85;;;4.60;;
13649;SDS011;6898;50.918;4.688;2022-10-10T10:09:46;12.15;;;4.50;;
13649;SDS011;6898;50.918;4.688;2022-10-10T10:12:15;8.93;;;4.40;;
13649;SDS011;6898;50.918;4.688;2022-10-10T10:14:45;8.45;;;4.63;;
13649;SDS011;6898;50.918;4.688;2022-10-10T10:17:15;13.30;;;4.70;;
13649;SDS011;6898;50.918;4.688;2022-10-10T10:19:45;10.88;;;4.50;;
13649;SDS011;6898;50.918;4.688;2022-10-10T10:22:22;10.90;;;4.50;;
13649;SDS011;6898;50.918;4.688;2022-10-10T10:24:51;9.15;;;4.40;;
13649;SDS011;6898;50.918;4.688;2022-10-10T10:27:21;9.05;;;3.67;;
13649;SDS011;6898;50.918;4.688;2022-10-10T10:29:51;11.93;;;4.00;;
13649;SDS011;6898;50.918;4.688;2022-10-10T10:32:26;8.20;;;3.42;;
13649;SDS011;6898;50.918;4.688;2022-10-10T10:35:03;9.73;;;3.78;;
13649;SDS011;6898;50.918;4.688;2022-10-10T10:37:36;12.52;;;3.85;;
13649;SDS011;6898;50.918;4.688;2022-10-10T10:40:20;9.38;;;3.40;;
13649;SDS011;6898;50.918;4.688;2022-10-10T10:42:54;10.32;;;3.50;;
13649;SDS011;6898;50.918;4.688;2022-10-10T10:45:29;13.57;;;4.03;;
13649;SDS011;6898;50.918;4.688;2022-10-10T10:48:09;9.57;;;3.50;;
13649;SDS011;6898;50.918;4.688;2022-10-10T10:50:42;10.30;;;3.37;;
13649;SDS011;6898;50.918;4.688;2022-10-10T10:53:14;7.60;;;3.53;;
13649;SDS011;6898;50.918;4.688;2022-10-10T10:55:47;9.25;;;3.47;;
13649;SDS011;6898;50.918;4.688;2022-10-10T10:58:21;8.25;;;3.65;;
13649;SDS011;6898;50.918;4.688;2022-10-10T11:01:13;9.57;;;3.20;;
13649;SDS011;6898;50.918;4.688;2022-10-10T11:03:57;10.57;;;3.55;;
13649;SDS011;6898;50.918;4.688;2022-10-10T11:06:32;10.93;;;3.30;;
13649;SDS011;6898;50.918;4.688;2022-10-10T11:09:05;9.50;;;3.30;;
13649;SDS011;6898;50.918;4.688;2022-10-10T11:11:52;12.13;;;3.55;;
13649;SDS011;6898;50.918;4.688;2022-10-10T11:17:15;10.35;;;3.60;;
13649;SDS011;6898;50.918;4.688;2022-10-10T11:19:48;8.07;;;3.33;;
13649;SDS011;6898;50.918;4.688;2022-10-10T11:22:23;11.75;;;3.38;;
13649;SDS011;6898;50.918;4.688;2022-10-10T11:24:53;12.25;;;3.90;;
13649;SDS011;6898;50.918;4.688;2022-10-10T11:27:25;9.63;;;3.35;;
13649;SDS011;6898;50.918;4.688;2022-10-10T11:30:06;10.10;;;3.40;;
13649;SDS011;6898;50.918;4.688;2022-10-10T11:32:36;7.82;;;3.30;;
13649;SDS011;6898;50.918;4.688;2022-10-10T11:35:13;9.03;;;3.50;;
13649;SDS011;6898;50.918;4.688;2022-10-10T11:37:44;9.48;;;3.40;;
13649;SDS011;6898;50.918;4.688;2022-10-10T11:40:22;9.40;;;3.40;;
13649;SDS011;6898;50.918;4.688;2022-10-10T11:42:54;11.02;;;3.80;;
13649;SDS011;6898;50.918;4.688;2022-10-10T11:45:24;11.60;;;3.42;;
13649;SDS011;6898;50.918;4.688;2022-10-10T11:47:55;10.18;;;3.30;;
13649;SDS011;6898;50.918;4.688;2022-10-10T11:50:27;9.57;;;3.50;;
13649;SDS011;6898;50.918;4.688;2022-10-10T11:52:57;10.15;;;3.30;;
13649;SDS011;6898;50.918;4.688;2022-10-10T11:55:27;9.32;;;3.20;;
13649;SDS011;6898;50.918;4.688;2022-10-10T11:58:13;8.68;;;2.72;;
13649;SDS011;6898;50.918;4.688;2022-10-10T12:00:45;8.40;;;3.27;;
13649;SDS011;6898;50.918;4.688;2022-10-10T12:03:15;11.25;;;3.42;;
13649;SDS011;6898;50.918;4.688;2022-10-10T12:05:46;8.20;;;3.00;;
13649;SDS011;6898;50.918;4.688;2022-10-10T12:08:16;11.93;;;3.30;;
13649;SDS011;6898;50.918;4.688;2022-10-10T12:10:47;10.63;;;3.30;;
13649;SDS011;6898;50.918;4.688;2022-10-10T12:13:21;11.50;;;3.58;;
13649;SDS011;6898;50.918;4.688;2022-10-10T12:15:52;10.65;;;3.47;;
13649;SDS011;6898;50.918;4.688;2022-10-10T12:18:23;10.98;;;3.50;;
13649;SDS011;6898;50.918;4.688;2022-10-10T12:21:03;10.32;;;3.50;;
13649;SDS011;6898;50.918;4.688;2022-10-10T12:23:32;9.70;;;3.60;;
13649;SDS011;6898;50.918;4.688;2022-10-10T12:26:01;13.13;;;3.67;;
13649;SDS011;6898;50.918;4.688;2022-10-10T12:28:33;12.77;;;4.00;;
13649;SDS011;6898;50.918;4.688;2022-10-10T12:33:58;14.05;;;3.80;;
13649;SDS011;6898;50.918;4.688;2022-10-10T12:36:53;9.55;;;3.90;;
13649;SDS011;6898;50.918;4.688;2022-10-10T12:39:30;14.40;;;4.00;;
13649;SDS011;6898;50.918;4.688;2022-10-10T12:41:59;10.43;;;3.97;;
13649;SDS011;6898;50.918;4.688;2022-10-10T12:44:40;10.52;;;3.67;;
13649;SDS011;6898;50.918;4.688;2022-10-10T12:47:19;12.85;;;3.92;;
13649;SDS011;6898;50.918;4.688;2022-10-10T12:50:02;9.95;;;3.97;;
13649;SDS011;6898;50.918;4.688;2022-10-10T12:52:32;12.38;;;3.92;;
13649;SDS011;6898;50.918;4.688;2022-10-10T12:55:04;9.27;;;3.65;;
13649;SDS011;6898;50.918;4.688;2022-10-10T12:57:34;12.52;;;4.00;;
13649;SDS011;6898;50.918;4.688;2022-10-10T13:00:05;10.85;;;4.00;;
13649;SDS011;6898;50.918;4.688;2022-10-10T13:02:33;12.27;;;4.10;;
13649;SDS011;6898;50.918;4.688;2022-10-10T13:05:02;11.47;;;3.77;;
13649;SDS011;6898;50.918;4.688;2022-10-10T13:07:32;9.20;;;3.80;;
13649;SDS011;6898;50.918;4.688;2022-10-10T13:10:05;10.70;;;4.05;;
13649;SDS011;6898;50.918;4.688;2022-10-10T13:12:33;11.35;;;4.10;;
13649;SDS011;6898;50.918;4.688;2022-10-10T13:15:02;9.83;;;4.00;;
13649;SDS011;6898;50.918;4.688;2022-10-10T13:17:45;10.50;;;3.95;;
13649;SDS011;6898;50.918;4.688;2022-10-10T13:20:25;9.82;;;3.80;;
13649;SDS011;6898;50.918;4.688;2022-10-10T13:22:55;10.75;;;4.40;;
13649;SDS011;6898;50.918;4.688;2022-10-10T13:25:24;12.10;;;4.32;;
13649;SDS011;6898;50.918;4.688;2022-10-10T13:27:53;12.45;;;4.57;;
13649;SDS011;6898;50.918;4.688;2022-10-10T13:30:22;9.95;;;4.57;;
13649;SDS011;6898;50.918;4.688;2022-10-10T13:32:51;11.50;;;4.78;;
13649;SDS011;6898;50.918;4.688;2022-10-10T13:35:21;10.95;;;4.82;;
13649;SDS011;6898;50.918;4.688;2022-10-10T13:37:52;11.10;;;4.88;;
13649;SDS011;6898;50.918;4.688;2022-10-10T13:40:22;9.60;;;4.72;;
13649;SDS011;6898;50.918;4.688;2022-10-10T13:42:51;10.68;;;4.85;;
13649;SDS011;6898;50.918;4.688;2022-10-10T13:45:31;10.82;;;4.80;;
13649;SDS011;6898;50.918;4.688;2022-10-10T13:48:11;9.73;;;4.72;;
13649;SDS011;6898;50.918;4.688;2022-10-10T13:50:53;11.57;;;4.88;;
13649;SDS011;6898;50.918;4.688;2022-10-10T13:56:12;11.77;;;4.85;;
13649;SDS011;6898;50.918;4.688;2022-10-10T13:58:43;9.10;;;4.70;;
13649;SDS011;6898;50.918;4.688;2022-10-10T14:01:20;11.55;;;5.18;;
13649;SDS011;6898;50.918;4.688;2022-10-10T14:03:49;10.52;;;5.20;;
13649;SDS011;6898;50.918;4.688;2022-10-10T14:06:19;12.80;;;5.32;;
13649;SDS011;6898;50.918;4.688;2022-10-10T14:08:48;10.70;;;5.25;;
13649;SDS011;6898;50.918;4.688;2022-10-10T14:11:19;10.73;;;5.40;;
13649;SDS011;6898;50.918;4.688;2022-10-10T14:13:49;10.45;;;5.75;;
13649;SDS011;6898;50.918;4.688;2022-10-10T14:16:22;10.65;;;5.38;;
13649;SDS011;6898;50.918;4.688;2022-10-10T14:18:51;11.52;;;5.68;;
13649;SDS011;6898;50.918;4.688;2022-10-10T14:21:20;13.32;;;5.30;;
13649;SDS011;6898;50.918;4.688;2022-10-10T14:23:48;11.60;;;5.68;;
13649;SDS011;6898;50.918;4.688;2022-10-10T14:26:18;11.65;;;5.72;;
13649;SDS011;6898;50.918;4.688;2022-10-10T14:28:47;15.45;;;6.10;;
13649;SDS011;6898;50.918;4.688;2022-10-10T14:31:16;11.95;;;5.68;;
13649;SDS011;6898;50.918;4.688;2022-10-10T14:33:44;14.60;;;7.00;;
13649;SDS011;6898;50.918;4.688;2022-10-10T14:36:13;12.85;;;8.45;;
13649;SDS011;6898;50.918;4.688;2022-10-10T14:38:41;15.07;;;9.60;;
13649;SDS011;6898;50.918;4.688;2022-10-10T14:41:10;14.15;;;10.48;;
13649;SDS011;6898;50.918;4.688;2022-10-10T14:43:41;17.30;;;10.52;;
13649;SDS011;6898;50.918;4.688;2022-10-10T14:46:11;14.05;;;9.68;;
13649;SDS011;6898;50.918;4.688;2022-10-10T14:48:42;15.88;;;9.82;;
13649;SDS011;6898;50.918;4.688;2022-10-10T14:51:11;15.98;;;9.13;;
13649;SDS011;6898;50.918;4.688;2022-10-10T14:53:39;15.48;;;9.98;;
13649;SDS011;6898;50.918;4.688;2022-10-10T14:56:08;14.73;;;9.93;;
13649;SDS011;6898;50.918;4.688;2022-10-10T14:58:37;13.93;;;10.50;;
13649;SDS011;6898;50.918;4.688;2022-10-10T15:01:07;15.63;;;10.02;;
13649;SDS011;6898;50.918;4.688;2022-10-10T15:03:36;12.52;;;9.05;;
13649;SDS011;6898;50.918;4.688;2022-10-10T15:06:04;13.17;;;9.10;;
13649;SDS011;6898;50.918;4.688;2022-10-10T15:08:33;11.90;;;9.07;;
13649;SDS011;6898;50.918;4.688;2022-10-10T15:11:02;12.65;;;8.70;;
13649;SDS011;6898;50.918;4.688;2022-10-10T15:13:30;9.48;;;5.97;;
13649;SDS011;6898;50.918;4.688;2022-10-10T15:15:59;8.40;;;5.50;;
13649;SDS011;6898;50.918;4.688;2022-10-10T15:18:28;8.05;;;4.93;;
13649;SDS011;6898;50.918;4.688;2022-10-10T15:21:17;8.77;;;4.20;;
13649;SDS011;6898;50.918;4.688;2022-10-10T15:23:46;7.18;;;4.18;;